createdAt,value
2019-05-28T00:00:31.691Z,0.00
2019-05-28T00:01:31.686Z,0.00
2019-05-28T00:02:31.676Z,0.00
2019-05-28T00:03:31.672Z,0.00
2019-05-28T00:04:31.654Z,0.00
2019-05-28T00:05:31.636Z,0.00
2019-05-28T00:06:31.635Z,0.00
2019-05-28T00:07:31.618Z,0.00
2019-05-28T00:08:31.630Z,0.00
2019-05-28T00:09:31.590Z,0.00
2019-05-28T00:10:31.597Z,0.00
2019-05-28T00:11:31.574Z,0.00
2019-05-28T00:12:31.544Z,0.00
2019-05-28T00:13:31.578Z,0.00
2019-05-28T00:14:31.548Z,0.00
2019-05-28T00:15:31.529Z,0.00
2019-05-28T00:16:31.508Z,0.00
2019-05-28T00:17:31.506Z,0.00
2019-05-28T00:18:31.504Z,0.00
2019-05-28T00:19:31.493Z,0.00
2019-05-28T00:20:31.472Z,0.00
2019-05-28T00:21:31.464Z,0.00
2019-05-28T00:22:31.439Z,0.00
2019-05-28T00:23:31.466Z,0.00
2019-05-28T00:24:31.431Z,0.00
2019-05-28T00:25:31.412Z,0.00
2019-05-28T00:26:31.408Z,0.00
2019-05-28T00:27:31.396Z,0.00
2019-05-28T00:28:31.397Z,0.00
2019-05-28T00:29:31.367Z,0.00
2019-05-28T00:30:31.365Z,0.00
2019-05-28T00:31:31.352Z,0.00
2019-05-28T00:32:31.348Z,0.00
2019-05-28T00:33:31.340Z,0.00
2019-05-28T00:34:31.329Z,0.00
2019-05-28T00:35:31.307Z,0.00
2019-05-28T00:36:31.318Z,0.00
2019-05-28T00:37:31.277Z,0.00
2019-05-28T00:38:31.290Z,0.00
2019-05-28T00:39:31.257Z,0.00
2019-05-28T00:40:31.251Z,0.00
2019-05-28T00:41:31.249Z,0.00
2019-05-28T00:42:31.236Z,0.00
2019-05-28T00:43:31.225Z,0.00
2019-05-28T00:44:31.213Z,0.00
2019-05-28T00:45:31.191Z,0.00
2019-05-28T00:46:31.181Z,0.00
2019-05-28T00:47:31.166Z,0.00
2019-05-28T00:48:31.170Z,0.00
2019-05-28T00:49:31.155Z,0.00
2019-05-28T00:50:31.145Z,0.00
2019-05-28T00:51:31.126Z,0.00
2019-05-28T00:52:31.108Z,0.00
2019-05-28T00:53:31.127Z,0.00
2019-05-28T00:54:31.097Z,0.00
2019-05-28T00:55:31.095Z,0.00
2019-05-28T00:56:31.063Z,0.00
2019-05-28T00:57:31.053Z,0.00
2019-05-28T00:58:31.075Z,0.00
2019-05-28T00:59:31.045Z,0.00
2019-05-28T01:00:37.016Z,0.00
2019-05-28T01:01:32.007Z,0.00
2019-05-28T01:02:30.993Z,0.00
2019-05-28T01:03:31.007Z,0.00
2019-05-28T01:04:30.994Z,0.00
2019-05-28T01:05:31.039Z,0.00
2019-05-28T01:06:30.978Z,0.00
2019-05-28T01:07:30.949Z,0.00
2019-05-28T01:08:30.935Z,0.00
2019-05-28T01:09:30.947Z,0.00
2019-05-28T01:10:30.907Z,0.00
2019-05-28T01:11:30.899Z,0.00
2019-05-28T01:12:30.894Z,0.00
2019-05-28T01:13:30.886Z,0.00
2019-05-28T01:14:30.909Z,0.00
2019-05-28T01:15:30.855Z,0.00
2019-05-28T01:16:30.852Z,0.00
2019-05-28T01:17:30.836Z,0.00
2019-05-28T01:18:30.831Z,0.00
2019-05-28T01:19:30.836Z,0.00
2019-05-28T01:20:30.796Z,0.00
2019-05-28T01:21:30.795Z,0.00
2019-05-28T01:22:30.778Z,0.00
2019-05-28T01:23:30.766Z,0.00
2019-05-28T01:24:30.790Z,0.00
2019-05-28T01:25:30.752Z,0.00
2019-05-28T01:26:30.746Z,0.00
2019-05-28T01:27:30.733Z,0.00
2019-05-28T01:28:30.718Z,0.00
2019-05-28T01:29:30.748Z,0.00
2019-05-28T01:30:30.702Z,0.00
2019-05-28T01:31:30.678Z,0.00
2019-05-28T01:32:30.669Z,0.00
2019-05-28T01:33:30.666Z,0.00
2019-05-28T01:34:30.672Z,0.00
2019-05-28T01:35:30.642Z,0.00
2019-05-28T01:36:30.632Z,0.00
2019-05-28T01:37:30.649Z,0.00
2019-05-28T01:38:30.605Z,0.00
2019-05-28T01:39:30.624Z,0.00
2019-05-28T01:40:30.577Z,0.00
2019-05-28T01:41:30.566Z,0.00
2019-05-28T01:42:30.562Z,0.00
2019-05-28T01:43:30.540Z,0.00
2019-05-28T01:44:30.570Z,0.00
2019-05-28T01:45:30.525Z,0.00
2019-05-28T01:46:30.537Z,0.00
2019-05-28T01:47:30.505Z,0.00
2019-05-28T01:48:30.498Z,0.00
2019-05-28T01:49:30.506Z,0.00
2019-05-28T01:50:30.467Z,0.00
2019-05-28T01:51:30.477Z,0.00
2019-05-28T01:52:30.475Z,0.00
2019-05-28T01:53:30.442Z,0.00
2019-05-28T01:54:30.460Z,0.00
2019-05-28T01:55:30.413Z,0.00
2019-05-28T01:56:30.416Z,0.00
2019-05-28T01:57:30.411Z,0.00
2019-05-28T01:58:30.377Z,0.00
2019-05-28T01:59:30.396Z,0.00
2019-05-28T02:00:30.354Z,0.00
2019-05-28T02:01:30.357Z,0.00
2019-05-28T02:02:30.349Z,0.00
2019-05-28T02:03:30.320Z,0.00
2019-05-28T02:04:30.331Z,0.00
2019-05-28T02:05:30.312Z,0.00
2019-05-28T02:06:30.294Z,0.00
2019-05-28T02:07:30.283Z,0.00
2019-05-28T02:08:30.273Z,0.00
2019-05-28T02:09:30.258Z,0.00
2019-05-28T02:10:30.263Z,0.00
2019-05-28T02:11:30.232Z,0.00
2019-05-28T02:12:30.225Z,0.00
2019-05-28T02:13:30.213Z,0.00
2019-05-28T02:14:30.225Z,0.00
2019-05-28T02:15:30.244Z,0.00
2019-05-28T02:16:30.178Z,0.00
2019-05-28T02:17:30.163Z,0.00
2019-05-28T02:18:30.155Z,0.00
2019-05-28T02:19:30.154Z,0.00
2019-05-28T02:20:30.163Z,0.00
2019-05-28T02:21:30.125Z,0.00
2019-05-28T02:22:30.142Z,4.00
2019-05-28T02:23:30.144Z,4.00
2019-05-28T02:24:30.089Z,4.00
2019-05-28T02:25:30.512Z,4.00
2019-05-28T02:26:30.071Z,4.00
2019-05-28T02:27:30.069Z,4.00
2019-05-28T02:28:30.051Z,4.00
2019-05-28T02:29:30.029Z,4.00
2019-05-28T02:30:30.045Z,8.00
2019-05-28T02:31:30.025Z,4.00
2019-05-28T02:32:30.008Z,8.00
2019-05-28T02:33:30.025Z,8.00
2019-05-28T02:34:29.993Z,8.00
2019-05-28T02:35:29.986Z,8.00
2019-05-28T02:36:29.959Z,8.00
2019-05-28T02:37:29.942Z,12.00
2019-05-28T02:38:29.960Z,12.00
2019-05-28T02:39:29.914Z,16.00
2019-05-28T02:40:29.941Z,16.00
2019-05-28T02:41:29.901Z,16.00
2019-05-28T02:42:29.880Z,20.00
2019-05-28T02:43:29.880Z,20.00
2019-05-28T02:44:29.878Z,20.00
2019-05-28T02:45:29.879Z,24.00
2019-05-28T02:46:29.832Z,24.00
2019-05-28T02:47:29.846Z,28.00
2019-05-28T02:48:29.814Z,28.00
2019-05-28T02:49:29.816Z,32.00
2019-05-28T02:50:29.818Z,36.00
2019-05-28T02:51:29.805Z,36.00
2019-05-28T02:52:31.927Z,40.00
2019-05-28T02:53:29.774Z,44.00
2019-05-28T02:54:29.772Z,44.00
2019-05-28T02:55:29.760Z,52.00
2019-05-28T02:56:29.734Z,52.00
2019-05-28T02:57:29.722Z,56.00
2019-05-28T02:58:29.711Z,60.00
2019-05-28T02:59:29.704Z,68.00
2019-05-28T03:00:29.704Z,72.00
2019-05-28T03:01:42.930Z,76.00
2019-05-28T03:02:30.674Z,84.00
2019-05-28T03:03:29.655Z,88.00
2019-05-28T03:04:29.650Z,96.00
2019-05-28T03:05:29.667Z,100.00
2019-05-28T03:06:29.627Z,100.00
2019-05-28T03:07:29.630Z,108.00
2019-05-28T03:08:29.632Z,108.00
2019-05-28T03:09:29.592Z,116.00
2019-05-28T03:10:57.608Z,120.00
2019-05-28T03:11:30.569Z,132.00
2019-05-28T03:12:29.562Z,140.00
2019-05-28T03:13:29.540Z,144.00
2019-05-28T03:14:29.530Z,156.00
2019-05-28T03:15:29.544Z,164.00
2019-05-28T03:16:29.505Z,172.00
2019-05-28T03:17:29.506Z,176.00
2019-05-28T03:18:29.487Z,184.00
2019-05-28T03:19:29.474Z,192.00
2019-05-28T03:20:29.491Z,196.00
2019-05-28T03:21:29.457Z,200.00
2019-05-28T03:22:29.452Z,208.00
2019-05-28T03:23:29.448Z,212.00
2019-05-28T03:24:29.412Z,216.00
2019-05-28T03:25:29.443Z,212.00
2019-05-28T03:26:29.395Z,212.00
2019-05-28T03:27:29.392Z,212.00
2019-05-28T03:28:29.367Z,208.00
2019-05-28T03:29:29.357Z,204.00
2019-05-28T03:30:29.396Z,212.00
2019-05-28T03:31:29.346Z,216.00
2019-05-28T03:32:29.326Z,216.00
2019-05-28T03:33:29.335Z,216.00
2019-05-28T03:34:29.312Z,224.00
2019-05-28T03:35:29.295Z,232.00
2019-05-28T03:36:29.302Z,236.00
2019-05-28T03:37:29.279Z,248.00
2019-05-28T03:38:29.259Z,248.00
2019-05-28T03:39:29.259Z,252.00
2019-05-28T03:40:29.261Z,256.00
2019-05-28T03:41:29.255Z,260.00
2019-05-28T03:42:29.221Z,260.00
2019-05-28T03:43:29.208Z,268.00
2019-05-28T03:44:29.201Z,272.00
2019-05-28T03:45:29.183Z,280.00
2019-05-28T03:46:29.191Z,288.00
2019-05-28T03:47:29.173Z,292.00
2019-05-28T03:48:29.157Z,292.00
2019-05-28T03:49:29.143Z,292.00
2019-05-28T03:50:29.145Z,288.00
2019-05-28T03:51:29.133Z,292.00
2019-05-28T03:52:29.117Z,300.00
2019-05-28T03:53:29.096Z,308.00
2019-05-28T03:54:29.091Z,312.00
2019-05-28T03:55:29.074Z,324.00
2019-05-28T03:56:29.091Z,332.00
2019-05-28T03:57:29.050Z,328.00
2019-05-28T03:58:29.103Z,320.00
2019-05-28T03:59:29.051Z,312.00
2019-05-28T04:00:29.022Z,304.00
2019-05-28T04:01:29.037Z,300.00
2019-05-28T04:02:28.993Z,300.00
2019-05-28T04:03:29.044Z,308.00
2019-05-28T04:04:28.973Z,324.00
2019-05-28T04:05:28.999Z,344.00
2019-05-28T04:06:28.980Z,360.00
2019-05-28T04:07:29.002Z,388.00
2019-05-28T04:08:28.928Z,416.00
2019-05-28T04:09:28.932Z,456.00
2019-05-28T04:10:28.911Z,492.00
2019-05-28T04:11:43.925Z,516.00
2019-05-28T04:12:29.882Z,540.00
2019-05-28T04:13:28.873Z,564.00
2019-05-28T04:14:28.861Z,576.00
2019-05-28T04:15:28.863Z,580.00
2019-05-28T04:16:28.858Z,588.00
2019-05-28T04:17:28.839Z,592.00
2019-05-28T04:18:28.828Z,588.00
2019-05-28T04:19:28.823Z,588.00
2019-05-28T04:20:28.800Z,612.00
2019-05-28T04:21:28.807Z,648.00
2019-05-28T04:22:28.766Z,660.00
2019-05-28T04:23:28.765Z,672.00
2019-05-28T04:24:28.758Z,700.00
2019-05-28T04:25:28.745Z,708.00
2019-05-28T04:26:28.788Z,692.00
2019-05-28T04:27:28.734Z,656.00
2019-05-28T04:28:28.708Z,620.00
2019-05-28T04:29:28.698Z,592.00
2019-05-28T04:30:28.699Z,580.00
2019-05-28T04:31:28.718Z,580.00
2019-05-28T04:32:39.963Z,588.00
2019-05-28T04:33:29.716Z,616.00
2019-05-28T04:34:28.639Z,640.00
2019-05-28T04:35:28.632Z,672.00
2019-05-28T04:36:28.621Z,708.00
2019-05-28T04:37:28.655Z,764.00
2019-05-28T04:38:28.608Z,836.00
2019-05-28T04:39:28.595Z,912.00
2019-05-28T04:40:28.583Z,968.00
2019-05-28T04:41:28.569Z,1012.00
2019-05-28T04:42:28.591Z,1056.00
2019-05-28T04:43:28.556Z,1088.00
2019-05-28T04:44:28.540Z,1136.00
2019-05-28T04:45:28.524Z,1180.00
2019-05-28T04:46:28.514Z,1236.00
2019-05-28T04:47:28.522Z,1284.00
2019-05-28T04:48:28.531Z,1332.00
2019-05-28T04:49:28.498Z,1392.00
2019-05-28T04:50:28.467Z,1444.00
2019-05-28T04:51:28.464Z,1464.00
2019-05-28T04:52:30.691Z,1464.00
2019-05-28T04:53:28.435Z,1464.00
2019-05-28T04:54:28.444Z,1468.00
2019-05-28T04:55:28.403Z,1472.00
2019-05-28T04:56:28.405Z,1444.00
2019-05-28T04:57:28.426Z,1452.00
2019-05-28T04:58:28.381Z,1468.00
2019-05-28T04:59:28.366Z,1472.00
2019-05-28T05:00:28.351Z,1464.00
2019-05-28T05:01:28.346Z,1452.00
2019-05-28T05:02:28.369Z,1436.00
2019-05-28T05:03:28.318Z,1400.00
2019-05-28T05:04:28.309Z,1376.00
2019-05-28T05:05:28.303Z,1372.00
2019-05-28T05:06:28.292Z,1380.00
2019-05-28T05:07:28.303Z,1408.00
2019-05-28T05:08:28.263Z,1432.00
2019-05-28T05:09:28.256Z,1476.00
2019-05-28T05:10:28.243Z,1520.00
2019-05-28T05:11:28.249Z,1552.00
2019-05-28T05:12:28.252Z,1552.00
2019-05-28T05:13:28.213Z,1556.00
2019-05-28T05:14:28.265Z,1588.00
2019-05-28T05:15:28.191Z,1624.00
2019-05-28T05:16:28.180Z,1688.00
2019-05-28T05:17:28.204Z,1764.00
2019-05-28T05:18:28.159Z,1780.00
2019-05-28T05:19:28.144Z,1796.00
2019-05-28T05:20:28.132Z,1836.00
2019-05-28T05:21:28.117Z,1876.00
2019-05-28T05:22:28.130Z,1908.00
2019-05-28T05:23:28.099Z,1928.00
2019-05-28T05:24:28.089Z,1948.00
2019-05-28T05:25:28.084Z,1984.00
2019-05-28T05:26:28.060Z,2008.00
2019-05-28T05:27:28.072Z,2036.00
2019-05-28T05:28:28.055Z,2064.00
2019-05-28T05:29:28.041Z,2076.00
2019-05-28T05:30:28.028Z,2096.00
2019-05-28T05:31:28.026Z,2124.00
2019-05-28T05:32:28.029Z,2176.00
2019-05-28T05:33:27.998Z,2252.00
2019-05-28T05:34:27.970Z,2300.00
2019-05-28T05:35:27.985Z,2376.00
2019-05-28T05:36:27.961Z,2380.00
2019-05-28T05:37:27.977Z,2380.00
2019-05-28T05:38:28.042Z,2328.00
2019-05-28T05:39:27.939Z,2248.00
2019-05-28T05:40:27.920Z,2152.00
2019-05-28T05:41:27.916Z,2064.00
2019-05-28T05:42:27.892Z,2016.00
2019-05-28T05:43:27.909Z,1988.00
2019-05-28T05:44:27.871Z,1972.00
2019-05-28T05:45:27.890Z,1960.00
2019-05-28T05:46:27.849Z,1992.00
2019-05-28T05:47:27.878Z,2036.00
2019-05-28T05:48:27.847Z,2060.00
2019-05-28T05:49:27.805Z,2088.00
2019-05-28T05:50:27.794Z,2120.00
2019-05-28T05:51:27.789Z,2132.00
2019-05-28T05:52:27.776Z,2116.00
2019-05-28T05:53:27.803Z,2088.00
2019-05-28T05:54:27.773Z,2068.00
2019-05-28T05:55:27.739Z,2064.00
2019-05-28T05:56:27.767Z,2012.00
2019-05-28T05:57:27.728Z,1952.00
2019-05-28T05:58:27.722Z,1884.00
2019-05-28T05:59:27.756Z,1804.00
2019-05-28T06:00:27.693Z,1736.00
2019-05-28T06:01:27.679Z,1696.00
2019-05-28T06:02:27.661Z,1656.00
2019-05-28T06:03:39.782Z,1632.00
2019-05-28T06:04:28.643Z,1608.00
2019-05-28T06:05:27.630Z,1596.00
2019-05-28T06:06:27.629Z,1584.00
2019-05-28T06:07:27.644Z,1560.00
2019-05-28T06:08:27.629Z,1536.00
2019-05-28T06:09:27.590Z,1508.00
2019-05-28T06:10:27.582Z,1472.00
2019-05-28T06:11:27.572Z,1464.00
2019-05-28T06:12:27.544Z,1484.00
2019-05-28T06:13:27.574Z,1532.00
2019-05-28T06:14:27.528Z,1588.00
2019-05-28T06:15:27.517Z,1668.00
2019-05-28T06:16:27.521Z,1792.00
2019-05-28T06:17:27.498Z,1928.00
2019-05-28T06:18:27.517Z,2020.00
2019-05-28T06:19:27.474Z,2040.00
2019-05-28T06:20:27.474Z,2024.00
2019-05-28T06:21:27.442Z,2044.00
2019-05-28T06:22:27.443Z,2048.00
2019-05-28T06:23:27.490Z,2044.00
2019-05-28T06:24:27.435Z,2036.00
2019-05-28T06:25:27.602Z,2056.00
2019-05-28T06:26:27.414Z,2080.00
2019-05-28T06:27:27.377Z,2108.00
2019-05-28T06:28:27.416Z,2128.00
2019-05-28T06:29:27.359Z,2136.00
2019-05-28T06:30:27.353Z,2152.00
2019-05-28T06:31:27.359Z,2160.00
2019-05-28T06:32:27.377Z,2160.00
2019-05-28T06:33:27.371Z,2172.00
2019-05-28T06:34:27.317Z,2168.00
2019-05-28T06:35:27.299Z,2148.00
2019-05-28T06:36:27.293Z,2136.00
2019-05-28T06:37:27.353Z,2132.00
2019-05-28T06:38:27.319Z,2132.00
2019-05-28T06:39:27.265Z,2140.00
2019-05-28T06:40:27.245Z,2164.00
2019-05-28T06:41:27.231Z,2200.00
2019-05-28T06:42:27.228Z,2232.00
2019-05-28T06:43:27.232Z,2228.00
2019-05-28T06:44:27.198Z,2224.00
2019-05-28T06:45:27.187Z,2208.00
2019-05-28T06:46:27.222Z,2192.00
2019-05-28T06:47:27.169Z,2176.00
2019-05-28T06:48:27.181Z,2176.00
2019-05-28T06:49:27.127Z,2192.00
2019-05-28T06:50:27.134Z,2224.00
2019-05-28T06:51:27.131Z,2272.00
2019-05-28T06:52:27.110Z,2320.00
2019-05-28T06:53:27.129Z,2360.00
2019-05-28T06:54:27.097Z,2400.00
2019-05-28T06:55:27.075Z,2452.00
2019-05-28T06:56:27.061Z,2516.00
2019-05-28T06:57:27.060Z,2588.00
2019-05-28T06:58:38.851Z,2680.00
2019-05-28T06:59:28.130Z,2792.00
2019-05-28T07:00:27.059Z,2884.00
2019-05-28T07:01:28.549Z,2916.00
2019-05-28T07:02:26.997Z,2888.00
2019-05-28T07:03:27.047Z,2844.00
2019-05-28T07:04:32.895Z,2804.00
2019-05-28T07:05:27.974Z,2772.00
2019-05-28T07:06:26.953Z,2736.00
2019-05-28T07:07:26.956Z,2696.00
2019-05-28T07:08:26.957Z,2652.00
2019-05-28T07:09:26.929Z,2616.00
2019-05-28T07:10:26.923Z,2592.00
2019-05-28T07:11:26.912Z,2596.00
2019-05-28T07:12:26.891Z,2624.00
2019-05-28T07:13:26.891Z,2664.00
2019-05-28T07:14:26.858Z,2708.00
2019-05-28T07:15:26.852Z,2756.00
2019-05-28T07:16:26.843Z,2792.00
2019-05-28T07:17:26.834Z,2824.00
2019-05-28T07:18:26.839Z,2868.00
2019-05-28T07:19:26.800Z,2904.00
2019-05-28T07:20:26.791Z,2944.00
2019-05-28T07:21:26.787Z,2976.00
2019-05-28T07:22:26.772Z,2996.00
2019-05-28T07:23:26.776Z,3020.00
2019-05-28T07:24:26.766Z,3052.00
2019-05-28T07:25:26.748Z,3084.00
2019-05-28T07:26:26.728Z,3104.00
2019-05-28T07:27:26.734Z,3116.00
2019-05-28T07:28:26.729Z,3124.00
2019-05-28T07:29:26.724Z,3128.00
2019-05-28T07:30:26.682Z,3148.00
2019-05-28T07:31:26.692Z,3140.00
2019-05-28T07:32:26.663Z,3144.00
2019-05-28T07:33:27.138Z,3148.00
2019-05-28T07:34:30.785Z,3160.00
2019-05-28T07:35:26.665Z,3180.00
2019-05-28T07:36:26.617Z,3212.00
2019-05-28T07:37:26.618Z,3252.00
2019-05-28T07:38:26.629Z,3284.00
2019-05-28T07:39:26.585Z,3304.00
2019-05-28T07:40:31.674Z,3268.00
2019-05-28T07:41:27.571Z,3320.00
2019-05-28T07:42:32.545Z,3328.00
2019-05-28T07:43:27.563Z,3344.00
2019-05-28T07:44:26.543Z,3368.00
2019-05-28T07:45:26.521Z,3384.00
2019-05-28T07:46:26.521Z,3396.00
2019-05-28T07:47:26.503Z,3408.00
2019-05-28T07:48:26.552Z,3432.00
2019-05-28T07:49:26.488Z,3444.00
2019-05-28T07:50:26.460Z,3460.00
2019-05-28T07:51:26.451Z,3492.00
2019-05-28T07:52:26.454Z,3520.00
2019-05-28T07:53:39.524Z,3536.00
2019-05-28T07:54:27.434Z,3548.00
2019-05-28T07:55:26.408Z,3560.00
2019-05-28T07:56:26.398Z,3556.00
2019-05-28T07:57:26.429Z,3560.00
2019-05-28T07:58:26.375Z,3552.00
2019-05-28T07:59:26.404Z,3536.00
2019-05-28T08:00:26.355Z,3524.00
2019-05-28T08:01:26.356Z,3512.00
2019-05-28T08:02:26.335Z,3500.00
2019-05-28T08:03:26.321Z,3492.00
2019-05-28T08:04:26.333Z,3484.00
2019-05-28T08:05:26.289Z,3484.00
2019-05-28T08:06:26.283Z,3488.00
2019-05-28T08:07:26.277Z,3504.00
2019-05-28T08:08:26.270Z,3536.00
2019-05-28T08:09:26.287Z,3572.00
2019-05-28T08:10:29.304Z,3612.00
2019-05-28T08:11:26.241Z,3636.00
2019-05-28T08:12:26.215Z,3680.00
2019-05-28T08:13:39.609Z,3732.00
2019-05-28T08:14:27.217Z,3792.00
2019-05-28T08:15:26.388Z,3848.00
2019-05-28T08:16:26.173Z,3896.00
2019-05-28T08:17:26.180Z,3932.00
2019-05-28T08:18:26.167Z,3944.00
2019-05-28T08:19:26.165Z,3940.00
2019-05-28T08:20:26.118Z,3924.00
2019-05-28T08:21:26.130Z,3904.00
2019-05-28T08:22:40.855Z,3868.00
2019-05-28T08:23:27.096Z,3820.00
2019-05-28T08:24:26.103Z,3804.00
2019-05-28T08:25:45.310Z,3860.00
2019-05-28T08:26:27.065Z,3932.00
2019-05-28T08:27:26.054Z,4032.00
2019-05-28T08:28:26.045Z,4112.00
2019-05-28T08:29:26.058Z,4160.00
2019-05-28T08:30:26.037Z,4148.00
2019-05-28T08:31:26.002Z,4112.00
2019-05-28T08:32:26.006Z,4092.00
2019-05-28T08:33:25.988Z,4072.00
2019-05-28T08:34:25.989Z,4092.00
2019-05-28T08:35:25.966Z,4072.00
2019-05-28T08:36:25.952Z,3988.00
2019-05-28T08:37:25.953Z,3856.00
2019-05-28T08:38:25.940Z,3676.00
2019-05-28T08:39:25.943Z,3472.00
2019-05-28T08:40:25.922Z,3216.00
2019-05-28T08:41:25.904Z,3032.00
2019-05-28T08:42:25.905Z,3168.00
2019-05-28T08:43:25.872Z,2968.00
2019-05-28T08:44:25.886Z,2692.00
2019-05-28T08:45:25.848Z,2424.00
2019-05-28T08:46:25.854Z,2208.00
2019-05-28T08:47:25.825Z,2184.00
2019-05-28T08:48:25.825Z,2320.00
2019-05-28T08:49:25.848Z,2576.00
2019-05-28T08:50:34.342Z,2752.00
2019-05-28T08:51:26.782Z,2976.00
2019-05-28T08:52:25.774Z,3172.00
2019-05-28T08:53:25.783Z,3284.00
2019-05-28T08:54:25.765Z,3268.00
2019-05-28T08:55:25.743Z,3348.00
2019-05-28T08:56:25.736Z,3284.00
2019-05-28T08:57:25.717Z,3276.00
2019-05-28T08:58:25.697Z,3276.00
2019-05-28T08:59:25.715Z,3332.00
2019-05-28T09:00:25.688Z,3360.00
2019-05-28T09:01:25.674Z,3316.00
2019-05-28T09:02:28.322Z,3328.00
2019-05-28T09:03:25.662Z,3512.00
2019-05-28T09:04:25.658Z,3576.00
2019-05-28T09:05:26.901Z,3596.00
2019-05-28T09:06:27.271Z,3624.00
2019-05-28T09:07:25.596Z,3592.00
2019-05-28T09:08:38.351Z,3552.00
2019-05-28T09:09:26.617Z,3596.00
2019-05-28T09:10:25.568Z,3716.00
2019-05-28T09:11:25.555Z,3792.00
2019-05-28T09:12:25.559Z,3904.00
2019-05-28T09:13:25.537Z,3960.00
2019-05-28T09:14:25.548Z,4012.00
2019-05-28T09:15:25.511Z,4072.00
2019-05-28T09:16:25.528Z,4048.00
2019-05-28T09:17:25.500Z,4028.00
2019-05-28T09:18:25.482Z,4040.00
2019-05-28T09:19:25.495Z,3956.00
2019-05-28T09:20:25.476Z,3920.00
2019-05-28T09:21:25.455Z,3936.00
2019-05-28T09:22:26.522Z,3952.00
2019-05-28T09:23:25.424Z,4020.00
2019-05-28T09:24:27.743Z,4156.00
2019-05-28T09:25:25.403Z,4280.00
2019-05-28T09:26:25.392Z,4340.00
2019-05-28T09:27:25.394Z,4300.00
2019-05-28T09:28:30.007Z,4188.00
2019-05-28T09:29:26.373Z,4052.00
2019-05-28T09:30:25.351Z,3916.00
2019-05-28T09:31:25.345Z,3800.00
2019-05-28T09:32:25.333Z,3444.00
2019-05-28T09:33:25.327Z,3024.00
2019-05-28T09:34:25.342Z,2900.00
2019-05-28T09:35:41.207Z,3056.00
2019-05-28T09:36:26.275Z,3468.00
2019-05-28T09:37:25.271Z,3472.00
2019-05-28T09:38:25.283Z,3496.00
2019-05-28T09:39:25.300Z,3468.00
2019-05-28T09:40:25.240Z,3356.00
2019-05-28T09:41:25.232Z,3304.00
2019-05-28T09:42:25.231Z,3288.00
2019-05-28T09:43:25.212Z,3204.00
2019-05-28T09:44:25.227Z,3292.00
2019-05-28T09:45:25.188Z,3264.00
2019-05-28T09:46:25.183Z,3292.00
2019-05-28T09:47:25.169Z,3164.00
2019-05-28T09:48:25.177Z,3172.00
2019-05-28T09:49:25.188Z,3356.00
2019-05-28T09:50:30.698Z,3592.00
2019-05-28T09:51:26.160Z,3656.00
2019-05-28T09:52:25.126Z,3492.00
2019-05-28T09:53:25.100Z,3296.00
2019-05-28T09:54:25.140Z,3124.00
2019-05-28T09:55:25.100Z,3004.00
2019-05-28T09:56:25.092Z,2916.00
2019-05-28T09:57:25.063Z,3068.00
2019-05-28T09:58:25.041Z,3328.00
2019-05-28T09:59:40.294Z,3396.00
2019-05-28T10:00:26.009Z,3528.00
2019-05-28T10:01:25.031Z,3696.00
2019-05-28T10:02:25.004Z,3772.00
2019-05-28T10:03:25.000Z,3716.00
2019-05-28T10:04:43.844Z,3580.00
2019-05-28T10:05:25.990Z,3632.00
2019-05-28T10:06:36.591Z,3848.00
2019-05-28T10:07:25.967Z,3876.00
2019-05-28T10:08:24.958Z,4024.00
2019-05-28T10:09:24.970Z,3984.00
2019-05-28T10:10:24.936Z,3800.00
2019-05-28T10:11:24.919Z,3668.00
2019-05-28T10:12:24.902Z,3940.00
2019-05-28T10:13:38.242Z,4136.00
2019-05-28T10:14:25.885Z,4020.00
2019-05-28T10:15:24.853Z,3960.00
2019-05-28T10:16:24.872Z,3864.00
2019-05-28T10:17:24.826Z,3808.00
2019-05-28T10:18:24.811Z,3768.00
2019-05-28T10:19:24.810Z,3800.00
2019-05-28T10:20:24.863Z,3820.00
2019-05-28T10:21:24.784Z,3848.00
2019-05-28T10:22:24.781Z,3928.00
2019-05-28T10:23:24.764Z,3928.00
2019-05-28T10:24:24.756Z,3808.00
2019-05-28T10:25:24.761Z,3720.00
2019-05-28T10:26:24.730Z,3676.00
2019-05-28T10:27:24.721Z,3628.00
2019-05-28T10:28:24.718Z,3552.00
2019-05-28T10:29:24.701Z,3516.00
2019-05-28T10:30:24.706Z,3508.00
2019-05-28T10:31:24.681Z,3480.00
2019-05-28T10:32:24.688Z,3480.00
2019-05-28T10:33:24.647Z,3516.00
2019-05-28T10:34:24.651Z,3588.00
2019-05-28T10:35:24.647Z,3628.00
2019-05-28T10:36:35.176Z,3696.00
2019-05-28T10:37:25.609Z,3644.00
2019-05-28T10:38:24.622Z,3388.00
2019-05-28T10:39:24.582Z,3308.00
2019-05-28T10:40:24.584Z,3340.00
2019-05-28T10:41:24.571Z,3380.00
2019-05-28T10:42:24.560Z,3388.00
2019-05-28T10:43:24.543Z,3368.00
2019-05-28T10:44:24.551Z,3272.00
2019-05-28T10:45:24.542Z,3208.00
2019-05-28T10:46:24.501Z,3216.00
2019-05-28T10:47:24.526Z,3304.00
2019-05-28T10:48:24.524Z,3356.00
2019-05-28T10:49:24.479Z,3404.00
2019-05-28T10:50:24.489Z,3372.00
2019-05-28T10:51:24.470Z,3476.00
2019-05-28T10:52:24.446Z,3460.00
2019-05-28T10:53:24.429Z,3316.00
2019-05-28T10:54:24.432Z,3128.00
2019-05-28T10:55:24.435Z,3036.00
2019-05-28T10:56:24.427Z,2968.00
2019-05-28T10:57:24.386Z,2852.00
2019-05-28T10:58:24.371Z,2712.00
2019-05-28T10:59:24.364Z,2672.00
2019-05-28T11:00:24.420Z,2720.00
2019-05-28T11:01:24.342Z,2804.00
2019-05-28T11:02:24.346Z,3044.00
2019-05-28T11:03:24.319Z,3196.00
2019-05-28T11:04:24.304Z,3260.00
2019-05-28T11:05:24.321Z,3412.00
2019-05-28T11:06:24.289Z,3568.00
2019-05-28T11:07:24.277Z,3504.00
2019-05-28T11:08:24.285Z,3564.00
2019-05-28T11:09:24.264Z,3720.00
2019-05-28T11:10:25.030Z,3856.00
2019-05-28T11:11:24.231Z,4040.00
2019-05-28T11:12:24.221Z,4056.00
2019-05-28T11:13:24.214Z,4196.00
2019-05-28T11:14:24.205Z,4244.00
2019-05-28T11:15:24.244Z,4268.00
2019-05-28T11:16:24.181Z,4308.00
2019-05-28T11:17:24.171Z,4376.00
2019-05-28T11:18:24.157Z,4240.00
2019-05-28T11:19:24.159Z,4156.00
2019-05-28T11:20:24.147Z,4216.00
2019-05-28T11:21:24.154Z,4240.00
2019-05-28T11:22:24.110Z,4280.00
2019-05-28T11:23:24.100Z,4284.00
2019-05-28T11:24:24.086Z,4268.00
2019-05-28T11:25:24.094Z,4256.00
2019-05-28T11:26:24.072Z,4276.00
2019-05-28T11:27:24.300Z,4264.00
2019-05-28T11:28:24.041Z,4320.00
2019-05-28T11:29:24.031Z,4360.00
2019-05-28T11:30:24.041Z,4336.00
2019-05-28T11:31:24.010Z,4372.00
2019-05-28T11:32:24.011Z,4564.00
2019-05-28T11:33:24.003Z,4616.00
2019-05-28T11:34:24.007Z,4332.00
2019-05-28T11:35:24.065Z,4140.00
2019-05-28T11:36:23.958Z,4348.00
2019-05-28T11:37:23.942Z,4428.00
2019-05-28T11:38:23.939Z,4332.00
2019-05-28T11:39:23.923Z,4252.00
2019-05-28T11:40:23.955Z,4228.00
2019-05-28T11:41:40.560Z,4232.00
2019-05-28T11:42:24.889Z,4240.00
2019-05-28T11:43:23.872Z,4292.00
2019-05-28T11:44:23.862Z,4392.00
2019-05-28T11:45:23.899Z,4532.00
2019-05-28T11:46:23.841Z,4648.00
2019-05-28T11:47:23.838Z,4748.00
2019-05-28T11:48:23.821Z,4792.00
2019-05-28T11:49:23.816Z,4816.00
2019-05-28T11:50:23.839Z,4836.00
2019-05-28T11:51:23.786Z,4792.00
2019-05-28T11:52:23.780Z,4696.00
2019-05-28T11:53:23.772Z,4548.00
2019-05-28T11:54:23.770Z,4356.00
2019-05-28T11:55:23.761Z,4184.00
2019-05-28T11:56:23.761Z,4040.00
2019-05-28T11:57:23.715Z,3988.00
2019-05-28T11:58:23.732Z,3908.00
2019-05-28T11:59:23.707Z,3652.00
2019-05-28T12:00:23.721Z,3564.00
2019-05-28T12:01:34.226Z,3756.00
2019-05-28T12:02:24.661Z,3960.00
2019-05-28T12:03:23.654Z,4292.00
2019-05-28T12:04:23.658Z,4700.00
2019-05-28T12:05:23.697Z,4764.00
2019-05-28T12:06:23.623Z,4836.00
2019-05-28T12:07:26.418Z,4816.00
2019-05-28T12:08:23.599Z,4760.00
2019-05-28T12:09:23.582Z,4704.00
2019-05-28T12:10:23.617Z,4624.00
2019-05-28T12:11:23.570Z,4548.00
2019-05-28T12:12:23.573Z,4484.00
2019-05-28T12:13:23.537Z,4404.00
2019-05-28T12:14:23.563Z,4304.00
2019-05-28T12:15:23.533Z,4208.00
2019-05-28T12:16:23.653Z,4104.00
2019-05-28T12:17:40.654Z,4000.00
2019-05-28T12:18:24.513Z,3996.00
2019-05-28T12:19:23.509Z,3924.00
2019-05-28T12:20:23.468Z,3764.00
2019-05-28T12:21:23.519Z,3572.00
2019-05-28T12:22:23.449Z,3700.00
2019-05-28T12:23:23.441Z,3792.00
2019-05-28T12:24:27.856Z,3852.00